Time;durP1;ratioP1;P1;durP2;ratioP2;P2;SDS_P1;SDS_P2;PMS_P1;PMS_P2;Temp;Humidity;BMP_temperature;BMP_pressure;BME280_temperature;BME280_humidity;BME280_pressure;Samples;Min_cycle;Max_cycle;Signal;HPM_P1;HPM_P2
2021/01/03 00:02:00;;;;;;;16.73;8.77;;;6.70;83.20;;;;;;5047890;28;20063;-76
2021/01/03 00:04:26;;;;;;;17.50;8.88;;;6.60;83.10;;;;;;5049091;28;20116;-75
2021/01/03 00:06:53;;;;;;;22.17;8.93;;;6.70;83.20;;;;;;5031813;28;20107;-76
2021/01/03 00:09:19;;;;;;;16.67;8.52;;;6.60;83.20;;;;;;5027111;28;20060;-75
2021/01/03 00:11:45;;;;;;;16.67;8.57;;;6.70;83.20;;;;;;5032931;28;20105;-76
2021/01/03 00:14:11;;;;;;;18.55;9.07;;;6.60;83.10;;;;;;5045503;28;20104;-76
2021/01/03 00:16:37;;;;;;;17.42;8.30;;;6.60;83.10;;;;;;5042869;28;20029;-77
2021/01/03 00:19:04;;;;;;;18.10;9.48;;;6.60;83.20;;;;;;5030182;28;20029;-77
2021/01/03 00:21:30;;;;;;;15.95;7.70;;;6.60;83.80;;;;;;5041232;28;20025;-75
2021/01/03 00:23:55;;;;;;;17.10;9.07;;;6.60;83.80;;;;;;5049324;28;20029;-76
2021/01/03 00:26:21;;;;;;;17.52;8.90;;;6.60;83.20;;;;;;5030029;28;20025;-76
2021/01/03 00:28:47;;;;;;;15.52;8.38;;;6.60;83.20;;;;;;5030142;28;20057;-76
2021/01/03 00:31:13;;;;;;;17.02;7.97;;;6.60;83.80;;;;;;5034623;28;20049;-78
2021/01/03 00:33:39;;;;;;;16.73;8.77;;;6.60;83.20;;;;;;5031926;28;20538;-77
2021/01/03 00:36:06;;;;;;;17.00;8.40;;;6.60;83.10;;;;;;5031310;28;20120;-76
2021/01/03 00:38:32;;;;;;;15.57;8.45;;;6.60;83.20;;;;;;5039539;28;20027;-77
2021/01/03 00:40:58;;;;;;;15.45;8.35;;;6.60;83.10;;;;;;5040182;28;20091;-76
2021/01/03 00:43:25;;;;;;;15.80;8.63;;;6.60;83.20;;;;;;5058263;28;20038;-76
2021/01/03 00:45:51;;;;;;;16.08;9.25;;;6.60;83.20;;;;;;5039716;28;20159;-76
2021/01/03 00:48:17;;;;;;;17.65;9.55;;;6.60;83.20;;;;;;5049110;28;20052;-76
2021/01/03 00:50:43;;;;;;;16.65;8.45;;;6.60;83.20;;;;;;5002669;28;20482;-77
2021/01/03 00:53:09;;;;;;;16.50;9.32;;;6.60;83.20;;;;;;5032159;28;20466;-79
2021/01/03 00:55:34;;;;;;;16.80;8.98;;;6.60;83.20;;;;;;5058782;28;20038;-77
2021/01/03 00:58:00;;;;;;;14.05;8.07;;;6.60;83.20;;;;;;5042749;28;20499;-77
2021/01/03 01:00:32;;;;;;;13.93;7.28;;;6.60;83.20;;;;;;5023721;28;20029;-75
2021/01/03 01:02:58;;;;;;;17.25;8.35;;;6.60;83.20;;;;;;5029580;28;20041;-77
2021/01/03 01:05:24;;;;;;;13.70;7.95;;;6.60;83.10;;;;;;5026243;28;20022;-76
2021/01/03 01:07:50;;;;;;;17.08;8.90;;;6.60;83.10;;;;;;5025504;28;20045;-76
2021/01/03 01:10:21;;;;;;;17.20;8.43;;;6.60;83.10;;;;;;5032363;28;20017;-77
2021/01/03 01:12:49;;;;;;;18.15;8.80;;;6.60;83.20;;;;;;5031332;28;20033;-76
2021/01/03 01:15:19;;;;;;;16.60;8.98;;;6.60;83.20;;;;;;5032320;28;20100;-77
2021/01/03 01:17:50;;;;;;;14.70;7.88;;;6.60;83.20;;;;;;5046821;28;20035;-77
2021/01/03 01:20:17;;;;;;;15.05;7.97;;;6.60;83.20;;;;;;5028798;28;20029;-77
2021/01/03 01:22:44;;;;;;;19.90;9.35;;;6.60;83.20;;;;;;5032471;28;20029;-77
2021/01/03 01:25:11;;;;;;;16.05;8.35;;;6.60;83.10;;;;;;5028450;28;20428;-76
2021/01/03 01:27:37;;;;;;;18.10;9.60;;;6.60;83.20;;;;;;5036283;28;20029;-77
2021/01/03 01:30:08;;;;;;;17.73;9.07;;;6.60;83.20;;;;;;5036178;28;20025;-76
2021/01/03 01:32:34;;;;;;;18.98;8.85;;;6.60;83.20;;;;;;5012117;28;20065;-76
2021/01/03 01:35:00;;;;;;;17.42;8.93;;;6.60;83.20;;;;;;5027496;28;20036;-76
2021/01/03 01:37:26;;;;;;;16.10;8.52;;;6.60;83.20;;;;;;5048991;28;20561;-77
2021/01/03 01:39:52;;;;;;;19.67;9.20;;;6.50;83.10;;;;;;5018450;28;20032;-76
2021/01/03 01:42:19;;;;;;;17.23;8.95;;;6.60;83.20;;;;;;5050495;28;20029;-78
2021/01/03 01:44:45;;;;;;;17.73;8.90;;;6.60;83.20;;;;;;5033359;28;20151;-76
2021/01/03 01:47:26;;;;;;;16.40;8.18;;;6.60;83.20;;;;;;5022672;28;20032;-77
2021/01/03 01:49:54;;;;;;;17.00;8.50;;;6.60;83.20;;;;;;5041191;28;20052;-77
2021/01/03 01:52:21;;;;;;;16.17;7.90;;;6.60;83.20;;;;;;5017777;28;20029;-76
2021/01/03 01:54:54;;;;;;;19.25;9.45;;;6.60;83.20;;;;;;5048500;28;20029;-77
2021/01/03 01:57:44;;;;;;;16.55;8.80;;;6.60;83.20;;;;;;5050512;28;20049;-76
2021/01/03 02:00:21;;;;;;;16.98;8.82;;;6.50;83.10;;;;;;5045179;28;20113;-77
2021/01/03 02:03:21;;;;;;;15.45;7.75;;;6.50;83.10;;;;;;5032019;28;20120;-76
2021/01/03 02:05:59;;;;;;;14.70;8.10;;;6.50;83.20;;;;;;5035916;28;20032;-76
2021/01/03 02:08:29;;;;;;;15.27;7.55;;;6.50;83.10;;;;;;5038005;28;20029;-78
2021/01/03 02:10:55;;;;;;;17.90;8.95;;;6.50;83.10;;;;;;5046209;28;20032;-76
2021/01/03 02:13:32;;;;;;;17.02;8.82;;;6.50;83.70;;;;;;5035230;28;20037;-77
2021/01/03 02:16:06;;;;;;;15.75;8.65;;;6.50;83.20;;;;;;5042555;28;20025;-76
2021/01/03 02:18:32;;;;;;;13.95;7.90;;;6.60;83.20;;;;;;5051278;28;20443;-76
2021/01/03 02:21:31;;;;;;;14.45;7.78;;;6.50;83.10;;;;;;5021752;28;20034;-77
2021/01/03 02:24:20;;;;;;;14.20;7.88;;;6.50;83.20;;;;;;5049424;28;20532;-77
2021/01/03 02:27:00;;;;;;;14.95;8.27;;;6.60;83.20;;;;;;5045024;28;20025;-76
2021/01/03 02:29:28;;;;;;;14.25;7.43;;;6.50;83.20;;;;;;5044016;28;20053;-75
2021/01/03 02:31:59;;;;;;;15.27;8.15;;;6.50;83.10;;;;;;5046746;28;20021;-76
2021/01/03 02:34:36;;;;;;;16.23;8.13;;;6.50;83.20;;;;;;5035207;28;20055;-76
2021/01/03 02:37:13;;;;;;;17.63;8.23;;;6.50;83.20;;;;;;5050948;28;20033;-76
2021/01/03 02:39:50;;;;;;;14.30;8.40;;;6.50;83.20;;;;;;5045250;28;20442;-76
2021/01/03 02:42:20;;;;;;;14.38;7.65;;;6.50;83.20;;;;;;5045560;28;20101;-76
2021/01/03 02:44:47;;;;;;;16.05;8.40;;;6.50;83.20;;;;;;5042776;28;20025;-75
2021/01/03 02:47:13;;;;;;;14.70;8.23;;;6.50;83.20;;;;;;5039075;28;20025;-77
2021/01/03 02:49:39;;;;;;;15.82;8.45;;;6.50;83.20;;;;;;5030051;28;20050;-76
2021/01/03 02:52:10;;;;;;;14.30;8.10;;;6.50;83.20;;;;;;5048874;28;20474;-77
2021/01/03 02:54:36;;;;;;;16.23;8.43;;;6.50;83.20;;;;;;5033016;28;20083;-76
2021/01/03 02:57:02;;;;;;;14.57;7.95;;;6.50;83.20;;;;;;5044390;28;20038;-77
2021/01/03 02:59:28;;;;;;;14.50;7.65;;;6.50;83.20;;;;;;5043754;28;20033;-77
2021/01/03 03:01:54;;;;;;;17.00;7.88;;;6.50;83.10;;;;;;5013770;28;20025;-76
2021/01/03 03:04:19;;;;;;;15.88;7.93;;;6.50;83.10;;;;;;5033256;28;20041;-76
2021/01/03 03:06:45;;;;;;;14.55;7.82;;;6.50;83.10;;;;;;5029744;28;20021;-76
2021/01/03 03:09:11;;;;;;;17.13;8.32;;;6.50;83.10;;;;;;5040053;28;20098;-76
2021/01/03 03:11:37;;;;;;;16.63;8.52;;;6.50;83.10;;;;;;5014956;28;20059;-76
2021/01/03 03:14:03;;;;;;;14.45;7.70;;;6.50;83.20;;;;;;5039533;28;20048;-75
2021/01/03 03:16:28;;;;;;;14.63;8.10;;;6.50;83.10;;;;;;5030859;28;20470;-76
2021/01/03 03:18:54;;;;;;;14.65;8.32;;;6.50;83.10;;;;;;5029567;28;20040;-76
2021/01/03 03:21:21;;;;;;;16.48;7.80;;;6.50;83.80;;;;;;5040122;28;20037;-75
2021/01/03 03:23:47;;;;;;;16.48;8.10;;;6.50;83.10;;;;;;5030791;28;20034;-76
2021/01/03 03:26:13;;;;;;;15.70;8.18;;;6.50;83.10;;;;;;5029761;28;20033;-77
2021/01/03 03:28:39;;;;;;;16.92;8.65;;;6.50;83.10;;;;;;5001821;28;20041;-77
2021/01/03 03:31:05;;;;;;;17.15;8.38;;;6.50;83.10;;;;;;5017594;28;20395;-77
2021/01/03 03:33:31;;;;;;;16.42;8.55;;;6.50;83.10;;;;;;5042988;28;20440;-77
2021/01/03 03:35:56;;;;;;;16.27;8.23;;;6.50;83.10;;;;;;5032285;28;20558;-76
2021/01/03 03:38:22;;;;;;;17.85;9.00;;;6.50;83.10;;;;;;5034434;28;20108;-77
2021/01/03 03:40:48;;;;;;;15.80;8.60;;;6.50;83.10;;;;;;5033835;28;20033;-77
2021/01/03 03:43:14;;;;;;;16.92;8.88;;;6.50;83.10;;;;;;5028372;28;20065;-76
2021/01/03 03:45:39;;;;;;;17.85;8.65;;;6.50;83.10;;;;;;5036223;28;20025;-77
2021/01/03 03:48:06;;;;;;;16.45;8.43;;;6.50;83.20;;;;;;5034868;28;20730;-76
2021/01/03 03:50:31;;;;;;;16.95;8.57;;;6.50;83.10;;;;;;5019191;28;20053;-77
2021/01/03 03:52:58;;;;;;;17.85;8.15;;;6.50;83.10;;;;;;5032408;28;20091;-77
2021/01/03 03:55:23;;;;;;;17.15;9.00;;;6.50;83.20;;;;;;5036857;28;20021;-77
2021/01/03 03:57:49;;;;;;;14.40;7.95;;;6.50;83.10;;;;;;5033974;28;20033;-77
2021/01/03 04:00:19;;;;;;;16.63;8.02;;;6.50;83.10;;;;;;5032996;28;20036;-78
2021/01/03 04:02:46;;;;;;;15.57;7.88;;;6.50;83.20;;;;;;5048654;28;20074;-77
2021/01/03 04:05:16;;;;;;;16.40;8.57;;;6.50;83.10;;;;;;5044982;28;20021;-77
2021/01/03 04:07:42;;;;;;;16.10;8.30;;;6.50;83.10;;;;;;5048441;28;20025;-76
2021/01/03 04:10:08;;;;;;;17.90;8.70;;;6.40;83.10;;;;;;5032229;28;20071;-77
2021/01/03 04:12:35;;;;;;;16.77;8.65;;;6.40;83.10;;;;;;5032345;28;20612;-77
2021/01/03 04:15:06;;;;;;;16.58;8.35;;;6.40;83.10;;;;;;5048014;28;20017;-77
2021/01/03 04:17:32;;;;;;;16.85;8.38;;;6.40;83.10;;;;;;5019947;28;20033;-78
2021/01/03 04:19:57;;;;;;;18.27;9.10;;;6.40;83.10;;;;;;5018015;28;20049;-78
2021/01/03 04:22:23;;;;;;;16.95;8.38;;;6.50;83.10;;;;;;5030091;28;20068;-76
2021/01/03 04:24:49;;;;;;;16.85;7.65;;;6.50;83.10;;;;;;5036072;28;20039;-76
2021/01/03 04:27:15;;;;;;;15.45;8.05;;;6.40;83.10;;;;;;5031345;28;20055;-76
2021/01/03 04:29:40;;;;;;;17.35;9.00;;;6.50;83.10;;;;;;5045222;28;20528;-76
2021/01/03 04:32:09;;;;;;;19.15;9.15;;;6.40;83.10;;;;;;5033957;28;20385;-77
2021/01/03 04:34:38;;;;;;;19.85;8.98;;;6.40;83.10;;;;;;5032968;28;20116;-76
2021/01/03 04:37:04;;;;;;;19.05;9.43;;;6.40;83.10;;;;;;5050177;28;20036;-76
2021/01/03 04:39:30;;;;;;;18.60;9.30;;;6.40;83.00;;;;;;5033247;28;20084;-76
2021/01/03 04:42:07;;;;;;;18.33;9.25;;;6.40;83.00;;;;;;5035840;28;20029;-76
2021/01/03 04:44:37;;;;;;;17.02;8.35;;;6.40;83.10;;;;;;5043941;28;20038;-76
2021/01/03 04:47:10;;;;;;;18.15;8.88;;;6.40;83.10;;;;;;5035130;28;20057;-78
2021/01/03 04:49:44;;;;;;;18.55;8.90;;;6.40;83.10;;;;;;5031017;28;20119;-77
2021/01/03 04:52:37;;;;;;;17.42;8.85;;;6.40;83.10;;;;;;5035663;28;20069;-76
2021/01/03 04:55:11;;;;;;;18.35;9.05;;;6.40;83.10;;;;;;5017436;28;20057;-76
2021/01/03 04:58:01;;;;;;;18.48;9.57;;;6.40;83.00;;;;;;5046068;28;20040;-77
2021/01/03 05:00:33;;;;;;;19.00;8.73;;;6.40;83.10;;;;;;5025148;28;20080;-75
2021/01/03 05:03:05;;;;;;;19.65;9.35;;;6.40;83.00;;;;;;5048996;28;20037;-77
2021/01/03 05:05:35;;;;;;;16.80;8.80;;;6.40;83.00;;;;;;5032113;28;20059;-76
2021/01/03 05:08:03;;;;;;;18.23;8.85;;;6.40;83.10;;;;;;5024883;28;20069;-77
2021/01/03 05:10:29;;;;;;;18.90;9.23;;;6.40;83.10;;;;;;5039338;28;20033;-76
2021/01/03 05:13:26;;;;;;;18.15;8.95;;;6.40;83.10;;;;;;5039164;28;20494;-76
2021/01/03 05:15:52;;;;;;;21.67;9.07;;;6.40;83.20;;;;;;5031411;28;20032;-76
2021/01/03 05:18:18;;;;;;;21.77;9.57;;;6.40;83.00;;;;;;5030990;28;20033;-76
2021/01/03 05:20:53;;;;;;;21.50;11.27;;;6.40;83.10;;;;;;5031669;28;20052;-76
2021/01/03 05:23:23;;;;;;;20.48;9.25;;;6.30;83.10;;;;;;5050493;28;20112;-77
2021/01/03 05:25:50;;;;;;;18.95;9.52;;;6.40;83.10;;;;;;5046517;28;20079;-75
2021/01/03 05:28:39;;;;;;;18.50;9.35;;;6.30;83.00;;;;;;5033181;28;20064;-77
2021/01/03 05:31:15;;;;;;;19.20;9.70;;;6.30;83.10;;;;;;5030928;28;20037;-76
2021/01/03 05:33:55;;;;;;;17.67;9.07;;;6.30;83.00;;;;;;5042657;28;20453;-76
2021/01/03 05:36:52;;;;;;;18.75;10.02;;;6.30;83.10;;;;;;5049269;28;20033;-76
2021/01/03 05:39:21;;;;;;;19.80;9.48;;;6.30;83.10;;;;;;5040683;28;20068;-77
2021/01/03 05:41:47;;;;;;;15.57;8.95;;;6.30;83.00;;;;;;5038924;28;20238;-76
2021/01/03 05:44:25;;;;;;;18.17;9.10;;;6.30;83.00;;;;;;5036038;28;20056;-79
2021/01/03 05:47:04;;;;;;;16.38;8.55;;;6.30;83.10;;;;;;5031847;28;20120;-78
2021/01/03 05:49:31;;;;;;;18.33;9.40;;;6.30;83.10;;;;;;5030941;28;20122;-78
2021/01/03 05:52:26;;;;;;;21.73;10.02;;;6.30;83.00;;;;;;5046968;28;20048;-76
2021/01/03 05:54:53;;;;;;;17.27;9.30;;;6.30;83.20;;;;;;5035744;28;20465;-78
2021/01/03 05:57:29;;;;;;;20.23;10.43;;;6.30;83.00;;;;;;5053353;28;20114;-77
2021/01/03 05:59:55;;;;;;;21.20;10.00;;;6.30;83.10;;;;;;5029815;28;20105;-77
2021/01/03 06:02:27;;;;;;;20.88;10.13;;;6.30;83.00;;;;;;5033569;28;20029;-78
2021/01/03 06:05:07;;;;;;;21.23;9.68;;;6.30;83.10;;;;;;5023901;28;20036;-77
2021/01/03 06:07:34;;;;;;;18.65;9.57;;;6.30;83.10;;;;;;5038091;28;20029;-77
2021/01/03 06:10:00;;;;;;;21.73;10.20;;;6.30;83.00;;;;;;5040994;28;20026;-77
2021/01/03 06:12:27;;;;;;;17.83;9.88;;;6.30;83.00;;;;;;5042018;28;20033;-78
2021/01/03 06:15:05;;;;;;;18.98;9.88;;;6.30;83.10;;;;;;5039959;28;20017;-78
2021/01/03 06:17:43;;;;;;;19.92;10.68;;;6.30;83.10;;;;;;5032234;28;20033;-77
2021/01/03 06:20:15;;;;;;;18.90;9.95;;;6.30;83.10;;;;;;5038597;28;20025;-77
2021/01/03 06:22:49;;;;;;;17.40;9.50;;;6.30;83.10;;;;;;5037620;28;20022;-80
2021/01/03 06:25:21;;;;;;;18.52;9.65;;;6.30;83.10;;;;;;5040059;28;20026;-78
2021/01/03 06:27:48;;;;;;;17.27;9.45;;;6.30;83.10;;;;;;5033224;28;20068;-77
2021/01/03 06:30:18;;;;;;;18.27;9.27;;;6.30;83.10;;;;;;5044230;28;20033;-77
2021/01/03 06:33:04;;;;;;;18.77;9.75;;;6.30;83.10;;;;;;5045825;28;20465;-77
2021/01/03 06:35:43;;;;;;;16.35;9.35;;;6.30;83.10;;;;;;5032479;28;20044;-77
2021/01/03 06:38:14;;;;;;;19.27;9.52;;;6.30;83.10;;;;;;5040973;28;20075;-78
2021/01/03 06:40:41;;;;;;;17.90;9.40;;;6.30;83.10;;;;;;5051385;28;20028;-79
2021/01/03 06:43:46;;;;;;;19.00;9.52;;;6.30;83.10;;;;;;5034731;28;20028;-76
2021/01/03 06:46:44;;;;;;;19.10;9.77;;;6.30;83.10;;;;;;5048665;28;20025;-78
2021/01/03 06:49:36;;;;;;;17.88;9.35;;;6.30;83.10;;;;;;5034102;28;20090;-78
2021/01/03 06:52:02;;;;;;;19.27;10.52;;;6.30;83.10;;;;;;5014819;28;20129;-77
2021/01/03 06:54:47;;;;;;;17.42;9.68;;;6.30;83.60;;;;;;5019766;28;20116;-77
2021/01/03 06:57:12;;;;;;;18.10;9.97;;;6.20;83.10;;;;;;5043564;28;20030;-77
2021/01/03 07:00:03;;;;;;;21.27;10.95;;;6.30;83.10;;;;;;5020270;28;20485;-77
2021/01/03 07:02:29;;;;;;;20.15;10.27;;;6.30;83.20;;;;;;5047914;28;20037;-77
2021/01/03 07:04:55;;;;;;;20.17;10.85;;;6.30;83.10;;;;;;5050164;28;20025;-77
2021/01/03 07:07:25;;;;;;;18.48;9.80;;;6.30;83.10;;;;;;5042153;28;20026;-78
2021/01/03 07:10:31;;;;;;;16.80;9.10;;;6.30;83.20;;;;;;5041866;28;20037;-77
2021/01/03 07:12:56;;;;;;;18.42;9.48;;;6.20;83.20;;;;;;5035130;28;20037;-76
2021/01/03 07:15:22;;;;;;;17.92;9.38;;;6.30;83.10;;;;;;5044229;28;20108;-77
2021/01/03 07:17:54;;;;;;;19.60;10.52;;;6.30;83.10;;;;;;5034809;28;20032;-78
2021/01/03 07:20:29;;;;;;;17.67;9.95;;;6.30;83.10;;;;;;5050719;28;20456;-78
2021/01/03 07:23:15;;;;;;;17.98;9.52;;;6.30;83.20;;;;;;5030718;28;20041;-78
2021/01/03 07:26:07;;;;;;;16.65;9.23;;;6.20;83.10;;;;;;5032293;28;20091;-79
2021/01/03 07:28:33;;;;;;;18.15;10.65;;;6.20;83.10;;;;;;5050527;28;20021;-78
2021/01/03 07:31:05;;;;;;;17.55;10.07;;;6.30;83.10;;;;;;5027060;28;20664;-78
2021/01/03 07:33:47;;;;;;;17.30;9.68;;;6.20;83.10;;;;;;5038475;28;20043;-77
2021/01/03 07:36:23;;;;;;;20.50;10.48;;;6.20;83.10;;;;;;5029512;28;20070;-79
2021/01/03 07:39:06;;;;;;;18.10;10.18;;;6.30;83.10;;;;;;5039578;28;20133;-77
2021/01/03 07:41:32;;;;;;;19.73;10.23;;;6.20;83.10;;;;;;5037212;28;20465;-79
2021/01/03 07:44:03;;;;;;;18.02;9.23;;;6.20;83.00;;;;;;5037597;28;20045;-79
2021/01/03 07:46:55;;;;;;;16.25;9.77;;;6.20;83.10;;;;;;5031542;28;20473;-77
2021/01/03 07:49:46;;;;;;;17.58;9.90;;;6.20;83.20;;;;;;5037655;28;20063;-78
2021/01/03 07:52:18;;;;;;;17.67;9.15;;;6.20;83.10;;;;;;5037500;28;20036;-79
2021/01/03 07:54:52;;;;;;;16.42;9.90;;;6.20;83.00;;;;;;5038154;28;20043;-79
2021/01/03 07:57:20;;;;;;;15.73;8.85;;;6.20;83.10;;;;;;5066944;28;20539;-77
2021/01/03 07:59:49;;;;;;;17.38;9.73;;;6.20;83.10;;;;;;5046918;28;20498;-77
2021/01/03 08:02:17;;;;;;;16.45;9.65;;;6.20;83.10;;;;;;5019792;28;20025;-77
2021/01/03 08:04:43;;;;;;;16.73;9.68;;;6.20;83.10;;;;;;5044452;28;20082;-77
2021/01/03 08:07:16;;;;;;;19.25;10.02;;;6.20;83.10;;;;;;5034746;28;20432;-77
2021/01/03 08:09:42;;;;;;;17.17;9.30;;;6.20;83.10;;;;;;5039089;28;20389;-78
2021/01/03 08:12:19;;;;;;;17.63;9.80;;;6.20;83.00;;;;;;5033122;28;20021;-77
2021/01/03 08:14:46;;;;;;;15.48;8.90;;;6.20;83.10;;;;;;5046179;28;20065;-77
2021/01/03 08:17:25;;;;;;;17.17;9.35;;;6.20;83.10;;;;;;5050062;28;20032;-78
2021/01/03 08:19:51;;;;;;;17.42;9.23;;;6.20;83.10;;;;;;5040044;28;20029;-79
2021/01/03 08:22:26;;;;;;;16.00;9.15;;;6.20;83.00;;;;;;5031342;28;20053;-78
2021/01/03 08:24:54;;;;;;;16.33;9.25;;;6.20;83.10;;;;;;5030085;28;20246;-81
2021/01/03 08:27:24;;;;;;;16.60;8.90;;;6.20;83.00;;;;;;5032788;28;20024;-77
2021/01/03 08:30:03;;;;;;;14.93;9.60;;;6.20;83.10;;;;;;5043550;28;20024;-77
2021/01/03 08:32:31;;;;;;;15.77;9.05;;;6.20;83.10;;;;;;5038934;28;20024;-78
2021/01/03 08:34:59;;;;;;;14.70;8.48;;;6.20;83.10;;;;;;5044879;28;20024;-76
2021/01/03 08:37:34;;;;;;;13.68;8.73;;;6.20;83.10;;;;;;5048277;28;20061;-77
2021/01/03 08:40:16;;;;;;;15.65;8.80;;;6.20;83.10;;;;;;5044599;28;20112;-78
2021/01/03 08:42:48;;;;;;;16.00;9.35;;;6.20;83.10;;;;;;5032861;28;20108;-77
2021/01/03 08:45:20;;;;;;;16.27;9.05;;;6.20;83.10;;;;;;5049586;28;20692;-77
2021/01/03 08:47:46;;;;;;;13.52;8.25;;;6.20;83.10;;;;;;5033262;28;20552;-78
2021/01/03 08:50:23;;;;;;;17.08;8.82;;;6.20;83.10;;;;;;5026884;28;20065;-78
2021/01/03 08:53:05;;;;;;;13.82;8.13;;;6.20;83.10;;;;;;5046949;28;20138;-77
2021/01/03 08:55:37;;;;;;;15.15;8.07;;;6.20;83.10;;;;;;5049918;28;20478;-77
2021/01/03 08:58:10;;;;;;;16.08;9.40;;;6.20;83.00;;;;;;5046965;28;20431;-78
2021/01/03 09:00:39;;;;;;;15.60;8.68;;;6.20;83.10;;;;;;5038062;28;20435;-77
2021/01/03 09:03:12;;;;;;;14.20;8.90;;;6.20;83.10;;;;;;5048600;28;20041;-78
2021/01/03 09:05:39;;;;;;;15.85;8.88;;;6.20;83.10;;;;;;5027501;28;20032;-78
2021/01/03 09:08:08;;;;;;;16.63;8.77;;;6.20;83.00;;;;;;5045231;28;20363;-78
2021/01/03 09:10:38;;;;;;;14.18;7.97;;;6.20;83.00;;;;;;5044251;28;20029;-78
2021/01/03 09:13:26;;;;;;;14.63;8.95;;;6.20;83.00;;;;;;5037087;28;20029;-77
2021/01/03 09:16:20;;;;;;;13.10;7.80;;;6.20;83.10;;;;;;5047990;28;20037;-78
2021/01/03 09:19:16;;;;;;;14.23;8.68;;;6.20;83.10;;;;;;5017572;28;20378;-78
2021/01/03 09:21:58;;;;;;;15.18;8.38;;;6.20;83.00;;;;;;5047406;28;20028;-79
2021/01/03 09:24:32;;;;;;;14.15;7.63;;;6.20;82.90;;;;;;5029519;28;20033;-77
2021/01/03 09:27:01;;;;;;;13.75;7.93;;;6.20;82.90;;;;;;5035283;28;20021;-79
2021/01/03 09:29:30;;;;;;;14.10;8.25;;;6.20;82.90;;;;;;5048448;28;20591;-77
2021/01/03 09:32:04;;;;;;;14.23;8.13;;;6.20;83.00;;;;;;5044088;28;20041;-77
2021/01/03 09:34:52;;;;;;;15.57;8.52;;;6.20;83.60;;;;;;5013586;28;20037;-76
2021/01/03 09:37:34;;;;;;;15.32;8.10;;;6.20;83.00;;;;;;5018681;28;20145;-76
2021/01/03 09:40:09;;;;;;;14.82;8.27;;;6.20;83.10;;;;;;5030292;28;20091;-76
2021/01/03 09:42:37;;;;;;;;;;;6.20;83.10;;;;;;5040361;28;20021;-77
2021/01/03 09:45:32;;;;;;;13.32;6.97;;;6.20;82.90;;;;;;5040617;28;19931;-76
2021/01/03 09:47:58;;;;;;;13.52;7.05;;;6.20;82.90;;;;;;5036464;28;20402;-78
2021/01/03 09:50:29;;;;;;;12.77;7.50;;;6.20;82.90;;;;;;5030992;28;20053;-76
2021/01/03 09:53:19;;;;;;;13.07;7.60;;;6.10;82.90;;;;;;5048922;28;20143;-77
2021/01/03 09:55:57;;;;;;;12.50;7.43;;;6.20;83.00;;;;;;5030515;28;20029;-76
2021/01/03 09:58:38;;;;;;;11.55;7.28;;;6.10;82.90;;;;;;5051434;28;20023;-78
2021/01/03 10:01:05;;;;;;;10.60;6.75;;;6.10;82.90;;;;;;5052681;28;20036;-77
2021/01/03 10:03:39;;;;;;;10.77;6.68;;;6.20;82.90;;;;;;5032242;28;20033;-78
2021/01/03 10:06:20;;;;;;;11.27;6.47;;;6.20;83.00;;;;;;5050683;28;20028;-78
2021/01/03 10:08:47;;;;;;;11.18;6.30;;;6.20;83.00;;;;;;5043548;28;20078;-78
2021/01/03 10:11:33;;;;;;;11.65;6.88;;;6.20;82.90;;;;;;5032160;28;20120;-78
2021/01/03 10:14:02;;;;;;;12.25;7.05;;;6.20;83.10;;;;;;5042871;28;20041;-78
2021/01/03 10:16:31;;;;;;;11.95;6.85;;;6.20;83.00;;;;;;5047620;28;20033;-81
2021/01/03 10:18:57;;;;;;;11.05;6.82;;;6.20;82.90;;;;;;5041378;28;20037;-79
2021/01/03 10:21:34;;;;;;;10.23;6.47;;;6.20;82.90;;;;;;5038629;28;20017;-78
2021/01/03 10:24:13;;;;;;;12.63;7.28;;;6.20;83.00;;;;;;5039143;28;20132;-77
2021/01/03 10:26:40;;;;;;;11.80;7.30;;;6.20;83.00;;;;;;5035381;28;20033;-79
2021/01/03 10:29:06;;;;;;;12.57;7.35;;;6.20;82.90;;;;;;5038583;28;20470;-79
2021/01/03 10:31:51;;;;;;;10.45;6.80;;;6.20;82.90;;;;;;5033740;28;20030;-78
2021/01/03 10:34:19;;;;;;;10.05;6.07;;;6.20;83.00;;;;;;5042228;28;20497;-79
2021/01/03 10:36:45;;;;;;;11.63;6.80;;;6.20;82.80;;;;;;5041469;28;20025;-76
2021/01/03 10:39:15;;;;;;;11.07;6.78;;;6.20;82.90;;;;;;5044986;28;20366;-78
2021/01/03 10:41:42;;;;;;;9.90;6.53;;;6.20;82.90;;;;;;5042647;28;20033;-77
2021/01/03 10:44:10;;;;;;;11.10;6.88;;;6.20;82.90;;;;;;5044279;28;20431;-77
2021/01/03 10:46:37;;;;;;;9.63;6.20;;;6.20;82.90;;;;;;5048051;28;20040;-78
2021/01/03 10:49:04;;;;;;;10.60;6.80;;;6.20;82.90;;;;;;5051098;28;20033;-80
2021/01/03 10:51:32;;;;;;;10.82;6.63;;;6.20;82.90;;;;;;5033183;28;20033;-78
2021/01/03 10:53:58;;;;;;;8.23;5.28;;;6.20;82.90;;;;;;5052620;28;20033;-77
2021/01/03 10:56:25;;;;;;;9.95;5.90;;;6.20;82.80;;;;;;5050707;28;20036;-77
2021/01/03 10:58:51;;;;;;;11.50;6.10;;;6.20;82.80;;;;;;5032928;28;20104;-80
2021/01/03 11:01:17;;;;;;;8.18;5.60;;;6.20;82.80;;;;;;5042989;28;20025;-77
2021/01/03 11:03:43;;;;;;;9.77;5.95;;;6.30;82.80;;;;;;5032685;28;20124;-76
2021/01/03 11:06:08;;;;;;;8.95;5.45;;;6.30;82.80;;;;;;5042659;28;20029;-77
2021/01/03 11:08:36;;;;;;;10.82;6.15;;;6.20;82.80;;;;;;5033259;28;20033;-75
2021/01/03 11:11:01;;;;;;;9.70;5.85;;;6.30;82.80;;;;;;5047842;28;20079;-77
2021/01/03 11:13:27;;;;;;;9.88;5.75;;;6.20;82.80;;;;;;5043606;28;20041;-77
2021/01/03 11:15:53;;;;;;;10.13;5.80;;;6.30;82.80;;;;;;5023137;28;20029;-79
2021/01/03 11:18:19;;;;;;;9.77;5.57;;;6.30;82.80;;;;;;5029753;28;20133;-77
2021/01/03 11:20:44;;;;;;;7.82;5.07;;;6.30;82.80;;;;;;5045498;28;20433;-76
2021/01/03 11:23:10;;;;;;;10.50;5.75;;;6.20;82.80;;;;;;5030666;28;20037;-75
2021/01/03 11:25:36;;;;;;;9.15;5.80;;;6.30;82.80;;;;;;5043005;28;20031;-78
2021/01/03 11:28:02;;;;;;;10.15;6.07;;;6.30;82.80;;;;;;5031189;28;20026;-78
2021/01/03 11:30:28;;;;;;;9.45;5.72;;;6.30;82.80;;;;;;5016395;28;20044;-77
2021/01/03 11:32:53;;;;;;;9.77;6.07;;;6.30;82.80;;;;;;5001835;28;20033;-75
2021/01/03 11:35:19;;;;;;;9.75;6.03;;;6.20;82.70;;;;;;5032250;28;20103;-78
2021/01/03 11:37:47;;;;;;;9.93;6.05;;;6.30;82.80;;;;;;5048217;28;20402;-79
2021/01/03 11:40:13;;;;;;;7.25;4.80;;;6.30;82.80;;;;;;5042458;28;20021;-79
2021/01/03 11:42:40;;;;;;;8.57;5.07;;;6.30;82.80;;;;;;5048233;28;20389;-79
2021/01/03 11:45:12;;;;;;;9.20;5.90;;;6.30;82.70;;;;;;5048222;28;20064;-78
2021/01/03 11:47:38;;;;;;;8.85;5.28;;;6.30;82.70;;;;;;5028941;28;20485;-77
2021/01/03 11:50:07;;;;;;;8.90;5.30;;;6.30;82.70;;;;;;5050194;28;20044;-75
2021/01/03 11:52:33;;;;;;;9.93;5.47;;;6.30;82.70;;;;;;5036141;28;20099;-79
2021/01/03 11:54:59;;;;;;;8.52;4.90;;;6.30;82.70;;;;;;5034268;28;20545;-79
2021/01/03 11:57:26;;;;;;;7.78;5.10;;;6.30;82.70;;;;;;5046813;28;20017;-79
2021/01/03 11:59:52;;;;;;;10.50;5.85;;;6.30;82.70;;;;;;5019736;28;20485;-77
2021/01/03 12:02:17;;;;;;;8.02;5.18;;;6.30;82.70;;;;;;5027509;28;20033;-78
2021/01/03 12:04:43;;;;;;;7.88;5.00;;;6.30;82.60;;;;;;5029708;28;20378;-78
2021/01/03 12:07:15;;;;;;;8.60;4.80;;;6.40;82.70;;;;;;5039353;28;20033;-77
2021/01/03 12:09:41;;;;;;;8.70;5.40;;;6.30;82.70;;;;;;5035194;28;20033;-76
2021/01/03 12:12:13;;;;;;;7.80;4.70;;;6.40;82.70;;;;;;5023679;28;20038;-77
2021/01/03 12:14:41;;;;;;;7.40;4.72;;;6.30;82.60;;;;;;5053886;28;20025;-78
2021/01/03 12:17:15;;;;;;;7.82;4.65;;;6.40;82.70;;;;;;5031870;28;20029;-80
2021/01/03 12:19:40;;;;;;;7.80;4.82;;;6.30;82.60;;;;;;5039038;28;20026;-79
2021/01/03 12:22:09;;;;;;;7.90;4.45;;;6.40;82.60;;;;;;5031625;28;20044;-84
2021/01/03 12:24:35;;;;;;;7.50;4.72;;;6.30;82.60;;;;;;5038620;28;20049;-79
2021/01/03 12:27:02;;;;;;;8.43;5.18;;;6.40;82.60;;;;;;5025649;28;20040;-79
2021/01/03 12:29:29;;;;;;;8.57;5.05;;;6.40;82.60;;;;;;5029025;28;20041;-77
2021/01/03 12:31:58;;;;;;;8.07;4.90;;;6.30;82.60;;;;;;5037450;28;20040;-79
2021/01/03 12:34:28;;;;;;;8.05;4.95;;;6.40;82.60;;;;;;5029545;28;20091;-77
2021/01/03 12:37:13;;;;;;;9.15;5.82;;;6.40;82.60;;;;;;5042764;28;20025;-76
2021/01/03 12:39:42;;;;;;;;;;;6.30;82.60;;;;;;5038513;28;20044;-78
2021/01/03 12:42:15;;;;;;;8.32;4.53;;;6.40;82.50;;;;;;5042435;28;19908;-78
2021/01/03 12:44:40;;;;;;;7.70;4.32;;;6.40;82.40;;;;;;5042920;28;20118;-78
2021/01/03 12:47:07;;;;;;;10.23;5.63;;;6.40;82.40;;;;;;5026702;28;20034;-79
2021/01/03 12:49:33;;;;;;;9.18;5.30;;;6.30;82.40;;;;;;5028956;28;20053;-77
2021/01/03 12:51:59;;;;;;;9.63;5.40;;;6.40;82.50;;;;;;5042116;28;20025;-76
2021/01/03 12:54:25;;;;;;;9.90;5.45;;;6.40;82.60;;;;;;5040506;28;20374;-78
2021/01/03 12:56:53;;;;;;;8.32;5.03;;;6.40;82.60;;;;;;5032463;28;20048;-77
2021/01/03 12:59:23;;;;;;;9.82;5.97;;;6.40;82.60;;;;;;5055205;28;20117;-77
2021/01/03 13:01:49;;;;;;;7.63;5.28;;;6.40;82.50;;;;;;5046103;28;20075;-80
2021/01/03 13:04:16;;;;;;;9.02;5.78;;;6.40;82.60;;;;;;5031937;28;20033;-78
2021/01/03 13:06:42;;;;;;;9.18;5.28;;;6.40;82.70;;;;;;5028905;28;20064;-78
2021/01/03 13:09:10;;;;;;;9.35;5.45;;;6.40;82.50;;;;;;5031686;28;20018;-79